Time;durP1;ratioP1;P1;durP2;ratioP2;P2;SDS_P1;SDS_P2;PMS_P1;PMS_P2;Temp;Humidity;BMP_temperature;BMP_pressure;BME280_temperature;BME280_humidity;BME280_pressure;Samples;Min_cycle;Max_cycle;Signal;HPM_P1;HPM_P2
2023/08/07 00:01:11;;;;;;;10.05;7.68;;;15.00;99.90;;;;;;7374788;19;20470;-58
2023/08/07 00:03:37;;;;;;;11.40;8.73;;;15.00;99.90;;;;;;7375958;19;20026;-58
2023/08/07 00:06:03;;;;;;;11.48;7.85;;;15.00;99.90;;;;;;7377574;19;20019;-58
2023/08/07 00:08:31;;;;;;;10.73;8.68;;;15.00;99.90;;;;;;7373527;19;20024;-58
2023/08/07 00:11:08;;;;;;;10.98;7.97;;;15.00;99.90;;;;;;7382015;19;20430;-58
2023/08/07 00:13:34;;;;;;;10.93;8.23;;;15.00;99.90;;;;;;7377101;19;20482;-58
2023/08/07 00:16:00;;;;;;;9.52;8.10;;;15.00;99.90;;;;;;7379509;19;20102;-57
2023/08/07 00:18:28;;;;;;;9.70;7.65;;;15.00;99.90;;;;;;7378221;19;20050;-58
2023/08/07 00:20:54;;;;;;;8.38;7.40;;;15.00;99.90;;;;;;7376672;19;20067;-58
2023/08/07 00:23:20;;;;;;;10.65;8.88;;;15.00;99.90;;;;;;7378606;19;20564;-58
2023/08/07 00:25:47;;;;;;;9.02;8.13;;;14.90;99.90;;;;;;7380373;19;20023;-58
2023/08/07 00:28:13;;;;;;;12.27;8.60;;;15.00;99.90;;;;;;7372354;19;20364;-57
2023/08/07 00:30:39;;;;;;;10.45;8.35;;;15.00;99.90;;;;;;7377082;19;20037;-58
2023/08/07 00:33:05;;;;;;;10.77;7.63;;;14.90;99.90;;;;;;7376648;19;20074;-58
2023/08/07 00:35:31;;;;;;;10.00;7.70;;;14.90;99.90;;;;;;7375778;19;20018;-58
2023/08/07 00:37:57;;;;;;;12.48;8.18;;;14.90;99.90;;;;;;7378716;19;20521;-58
2023/08/07 00:40:24;;;;;;;9.15;7.38;;;14.90;99.90;;;;;;7378764;19;20011;-58
2023/08/07 00:42:50;;;;;;;10.25;6.95;;;14.90;99.90;;;;;;7379361;19;20370;-57
2023/08/07 00:45:17;;;;;;;9.40;6.85;;;14.90;99.90;;;;;;7376100;19;20429;-61
2023/08/07 00:47:44;;;;;;;8.55;6.30;;;14.90;99.90;;;;;;7369505;19;20022;-62
2023/08/07 00:50:11;;;;;;;12.30;6.57;;;14.90;99.90;;;;;;7376059;19;20485;-61
2023/08/07 00:52:37;;;;;;;8.60;6.32;;;14.90;99.90;;;;;;7375985;19;20022;-61
2023/08/07 00:55:04;;;;;;;9.15;6.18;;;14.90;99.90;;;;;;7375492;19;20021;-61
2023/08/07 00:57:30;;;;;;;10.57;5.43;;;14.90;99.90;;;;;;7373119;19;20529;-62
2023/08/07 00:59:58;;;;;;;9.38;5.43;;;14.90;99.90;;;;;;7376220;19;20021;-61
2023/08/07 01:02:26;;;;;;;12.63;6.43;;;14.90;99.90;;;;;;7373646;19;20014;-61
2023/08/07 01:04:53;;;;;;;8.40;5.50;;;14.90;99.90;;;;;;7376745;19;20015;-58
2023/08/07 01:07:22;;;;;;;11.13;6.18;;;14.90;99.90;;;;;;7373270;19;20196;-61
2023/08/07 01:09:48;;;;;;;11.90;5.65;;;14.80;99.90;;;;;;7372365;19;20557;-60
2023/08/07 01:12:28;;;;;;;8.18;6.03;;;14.80;99.90;;;;;;7372720;19;20370;-61
2023/08/07 01:15:18;;;;;;;9.80;5.32;;;14.70;99.90;;;;;;7372156;19;20457;-61
2023/08/07 01:17:46;;;;;;;8.30;5.40;;;14.70;99.90;;;;;;7371195;19;20045;-61
2023/08/07 01:20:14;;;;;;;10.23;5.55;;;14.70;99.90;;;;;;7375486;19;20022;-61
2023/08/07 01:22:40;;;;;;;10.05;5.50;;;14.70;99.90;;;;;;7364146;19;20026;-61
2023/08/07 01:25:08;;;;;;;11.93;5.35;;;14.60;99.90;;;;;;7369807;19;20472;-61
2023/08/07 01:27:46;;;;;;;10.43;5.43;;;14.60;99.90;;;;;;7371012;19;20391;-61
2023/08/07 01:30:30;;;;;;;12.65;5.03;;;14.60;99.90;;;;;;7374309;19;20399;-61
2023/08/07 01:33:18;;;;;;;10.45;5.38;;;14.60;99.90;;;;;;7375937;19;20018;-62
2023/08/07 01:35:49;;;;;;;5.53;4.30;;;14.60;99.90;;;;;;7373615;19;20369;-61
2023/08/07 01:38:17;;;;;;;8.93;5.03;;;14.60;99.90;;;;;;7374175;19;20376;-62
2023/08/07 01:40:45;;;;;;;12.68;5.35;;;14.60;99.90;;;;;;7374496;19;20051;-63
2023/08/07 01:43:11;;;;;;;8.50;5.30;;;14.50;99.90;;;;;;7375249;19;20041;-61
2023/08/07 01:45:38;;;;;;;10.73;5.60;;;14.50;99.90;;;;;;7372331;19;20018;-62
2023/08/07 01:48:05;;;;;;;8.73;4.50;;;14.60;99.90;;;;;;7373833;19;20082;-62
2023/08/07 01:50:31;;;;;;;8.32;4.57;;;14.50;99.90;;;;;;7372959;19;20010;-62
2023/08/07 01:52:58;;;;;;;10.05;4.32;;;14.50;99.90;;;;;;7376493;19;20485;-64
2023/08/07 01:55:25;;;;;;;8.75;4.55;;;14.50;99.90;;;;;;7372531;19;20018;-62
2023/08/07 01:57:52;;;;;;;11.88;4.20;;;14.50;99.90;;;;;;7373183;19;20482;-61
2023/08/07 02:00:19;;;;;;;8.77;3.80;;;14.50;99.90;;;;;;7369233;19;20029;-61
2023/08/07 02:02:46;;;;;;;11.63;4.07;;;14.40;99.90;;;;;;7373370;19;20474;-58
2023/08/07 02:05:13;;;;;;;8.73;3.53;;;14.40;99.90;;;;;;7374554;19;20462;-58
2023/08/07 02:07:40;;;;;;;13.63;4.13;;;14.40;99.90;;;;;;7371861;19;20105;-62
2023/08/07 02:10:07;;;;;;;13.38;3.70;;;14.30;99.90;;;;;;7370606;19;20014;-62
2023/08/07 02:12:33;;;;;;;10.60;3.92;;;14.30;99.90;;;;;;7373136;19;20022;-62
2023/08/07 02:15:01;;;;;;;11.38;4.63;;;14.20;99.90;;;;;;7372010;19;20030;-58
2023/08/07 02:17:29;;;;;;;10.43;3.55;;;14.20;99.90;;;;;;7371212;19;20014;-59
2023/08/07 02:19:56;;;;;;;9.30;3.47;;;14.20;99.90;;;;;;7369394;19;20044;-58
2023/08/07 02:22:23;;;;;;;9.00;3.30;;;14.20;99.90;;;;;;7372953;19;20809;-58
2023/08/07 02:24:49;;;;;;;9.27;3.63;;;14.20;99.90;;;;;;7372970;19;20048;-59
2023/08/07 02:27:15;;;;;;;11.10;4.38;;;14.10;99.90;;;;;;7370333;19;20366;-58
2023/08/07 02:29:42;;;;;;;10.45;3.25;;;14.10;99.90;;;;;;7369881;19;20102;-58
2023/08/07 02:32:09;;;;;;;13.40;3.53;;;14.00;99.90;;;;;;7373887;19;20601;-58
2023/08/07 02:34:35;;;;;;;16.27;3.35;;;14.00;99.90;;;;;;7369756;19;20018;-58
2023/08/07 02:37:01;;;;;;;15.38;4.03;;;13.90;99.90;;;;;;7371051;19;20074;-58
2023/08/07 02:39:27;;;;;;;11.00;3.30;;;13.90;99.90;;;;;;7367706;19;20106;-58
2023/08/07 02:41:54;;;;;;;13.05;4.13;;;13.90;99.90;;;;;;7374950;19;20506;-58
2023/08/07 02:44:20;;;;;;;11.40;3.70;;;13.90;99.90;;;;;;7371266;19;20021;-59
2023/08/07 02:46:47;;;;;;;13.27;3.50;;;13.80;99.90;;;;;;7369162;19;20101;-59
2023/08/07 02:49:13;;;;;;;10.25;3.40;;;13.80;99.90;;;;;;7365780;19;20090;-59
2023/08/07 02:51:39;;;;;;;12.55;4.03;;;13.80;99.90;;;;;;7366390;19;20387;-58
2023/08/07 02:54:06;;;;;;;11.35;3.67;;;13.70;99.90;;;;;;7372135;19;20691;-58
2023/08/07 02:56:32;;;;;;;18.58;4.38;;;13.70;99.90;;;;;;7367114;19;20022;-59
2023/08/07 02:58:59;;;;;;;12.93;4.13;;;13.70;99.90;;;;;;7370129;19;20490;-59
2023/08/07 03:01:27;;;;;;;10.80;4.07;;;13.70;99.90;;;;;;7369391;19;20018;-60
2023/08/07 03:03:53;;;;;;;14.38;4.18;;;13.70;99.90;;;;;;7371015;19;20702;-59
2023/08/07 03:06:19;;;;;;;17.50;4.32;;;13.70;99.90;;;;;;7372011;19;20405;-58
2023/08/07 03:08:46;;;;;;;14.80;4.40;;;13.70;99.90;;;;;;7370557;19;20508;-59
2023/08/07 03:11:12;;;;;;;12.52;4.25;;;13.70;99.90;;;;;;7374430;19;20493;-59
2023/08/07 03:13:38;;;;;;;12.50;4.47;;;13.70;99.90;;;;;;7371930;19;20518;-58
2023/08/07 03:16:07;;;;;;;14.27;4.00;;;13.70;99.90;;;;;;7368821;19;20026;-62
2023/08/07 03:18:33;;;;;;;16.05;3.83;;;13.70;99.90;;;;;;7370235;19;20596;-60
2023/08/07 03:21:01;;;;;;;15.25;3.95;;;13.80;99.90;;;;;;7371253;19;20038;-62
2023/08/07 03:23:30;;;;;;;15.90;4.10;;;13.70;99.90;;;;;;7371771;19;20493;-62
2023/08/07 03:26:17;;;;;;;17.70;3.90;;;13.70;99.90;;;;;;7370543;19;20046;-62
2023/08/07 03:28:46;;;;;;;13.05;3.95;;;13.80;99.90;;;;;;7370330;19;20022;-58
2023/08/07 03:31:12;;;;;;;10.10;4.03;;;13.70;99.90;;;;;;7370968;19;20053;-59
2023/08/07 03:33:38;;;;;;;11.27;3.15;;;13.70;99.90;;;;;;7370629;19;20038;-58
2023/08/07 03:36:05;;;;;;;12.95;3.92;;;13.70;99.90;;;;;;7372911;19;20021;-58
2023/08/07 03:38:32;;;;;;;14.30;3.65;;;13.70;99.90;;;;;;7376968;19;20474;-58
2023/08/07 03:40:58;;;;;;;15.50;3.55;;;13.70;99.90;;;;;;7377449;19;20015;-58
2023/08/07 03:43:25;;;;;;;11.50;3.40;;;13.70;99.90;;;;;;7375293;19;20022;-59
2023/08/07 03:45:56;;;;;;;15.60;3.67;;;13.70;99.90;;;;;;7378060;19;20018;-58
2023/08/07 03:48:23;;;;;;;8.70;3.47;;;13.80;99.90;;;;;;7372533;19;20019;-58
2023/08/07 03:50:50;;;;;;;16.48;4.13;;;13.80;99.90;;;;;;7376277;19;20014;-58
2023/08/07 03:53:17;;;;;;;10.32;3.60;;;13.90;99.90;;;;;;7376020;19;20439;-58
2023/08/07 03:55:52;;;;;;;13.18;4.20;;;13.90;99.90;;;;;;7375410;19;20018;-58
2023/08/07 03:58:21;;;;;;;13.32;4.20;;;14.00;99.90;;;;;;7376711;19;20029;-58
2023/08/07 04:00:47;;;;;;;16.55;4.03;;;14.00;99.90;;;;;;7375892;19;20048;-59
2023/08/07 04:03:13;;;;;;;16.08;4.30;;;14.00;99.90;;;;;;7377867;19;20644;-58
2023/08/07 04:05:40;;;;;;;15.07;4.18;;;14.00;99.90;;;;;;7376807;19;21241;-58
2023/08/07 04:08:07;;;;;;;12.23;4.00;;;14.00;99.90;;;;;;7375136;19;20025;-59
2023/08/07 04:10:33;;;;;;;11.63;3.58;;;14.10;99.90;;;;;;7372640;19;20014;-58
2023/08/07 04:12:59;;;;;;;8.88;3.60;;;14.10;99.90;;;;;;7380383;19;20078;-63
2023/08/07 04:15:26;;;;;;;12.93;4.30;;;14.10;99.90;;;;;;7375657;19;20030;-59
2023/08/07 04:17:54;;;;;;;12.00;4.22;;;14.20;99.90;;;;;;7377244;19;20276;-62
2023/08/07 04:20:20;;;;;;;15.57;4.15;;;14.20;99.90;;;;;;7377055;19;20029;-61
2023/08/07 04:22:46;;;;;;;13.35;4.07;;;14.20;99.90;;;;;;7375319;19;20025;-61
2023/08/07 04:25:13;;;;;;;14.60;4.18;;;14.20;99.90;;;;;;7380490;19;20019;-61
2023/08/07 04:27:39;;;;;;;16.05;5.20;;;14.20;99.90;;;;;;7375576;19;20081;-62
2023/08/07 04:30:08;;;;;;;13.90;4.40;;;14.30;99.90;;;;;;7375384;19;20010;-62
2023/08/07 04:32:35;;;;;;;12.48;5.40;;;14.30;99.90;;;;;;7375660;19;20355;-62
2023/08/07 04:35:01;;;;;;;13.05;4.90;;;14.30;99.90;;;;;;7376384;19;20029;-62
2023/08/07 04:37:30;;;;;;;15.00;4.43;;;14.30;99.90;;;;;;7373766;19;20018;-62
2023/08/07 04:39:56;;;;;;;16.10;4.88;;;14.30;99.90;;;;;;7373339;19;20489;-62
2023/08/07 04:42:23;;;;;;;15.98;5.57;;;14.30;99.90;;;;;;7376964;19;20487;-60
2023/08/07 04:44:49;;;;;;;13.70;4.93;;;14.30;99.90;;;;;;7374612;19;20722;-59
2023/08/07 04:47:16;;;;;;;13.95;5.03;;;14.30;99.90;;;;;;7373236;19;20023;-59
2023/08/07 04:49:43;;;;;;;11.40;4.47;;;14.30;99.90;;;;;;7372717;19;20382;-59
2023/08/07 04:52:09;;;;;;;13.00;4.72;;;14.30;99.90;;;;;;7373357;19;20026;-60
2023/08/07 04:54:35;;;;;;;17.92;5.45;;;14.30;99.90;;;;;;7372841;19;20082;-59
2023/08/07 04:57:02;;;;;;;10.52;4.72;;;14.20;99.90;;;;;;7374283;19;20022;-59
2023/08/07 04:59:30;;;;;;;15.40;4.78;;;14.20;99.90;;;;;;7371978;19;20903;-59
2023/08/07 05:01:57;;;;;;;16.48;5.47;;;14.20;99.90;;;;;;7373522;19;20459;-59
2023/08/07 05:04:23;;;;;;;16.30;4.75;;;14.20;99.90;;;;;;7376558;19;20130;-59
2023/08/07 05:06:49;;;;;;;15.63;5.10;;;14.20;99.90;;;;;;7370011;19;20019;-59
2023/08/07 05:09:16;;;;;;;13.35;4.90;;;14.10;99.90;;;;;;7372126;19;20414;-60
2023/08/07 05:11:43;;;;;;;15.73;5.35;;;14.10;99.90;;;;;;7373455;19;20022;-59
2023/08/07 05:14:09;;;;;;;18.30;5.28;;;14.10;99.90;;;;;;7376417;19;20018;-59
2023/08/07 05:16:35;;;;;;;18.92;5.45;;;14.20;99.90;;;;;;7373975;19;20098;-59
2023/08/07 05:19:01;;;;;;;18.35;5.68;;;14.30;99.90;;;;;;7374064;19;20482;-59
2023/08/07 05:21:27;;;;;;;15.05;5.07;;;14.40;99.90;;;;;;7371021;19;20524;-59
2023/08/07 05:23:55;;;;;;;13.60;4.90;;;14.50;99.90;;;;;;7373842;19;20022;-60
2023/08/07 05:26:21;;;;;;;12.18;4.78;;;14.60;99.90;;;;;;7374427;19;20015;-60
2023/08/07 05:28:48;;;;;;;15.02;5.35;;;14.60;99.90;;;;;;7375196;19;20126;-60
2023/08/07 05:31:16;;;;;;;11.85;4.88;;;14.60;99.90;;;;;;7370647;19;20348;-58
2023/08/07 05:33:43;;;;;;;13.43;4.53;;;14.60;99.90;;;;;;7371324;19;20042;-60
2023/08/07 05:36:09;;;;;;;12.68;4.55;;;14.60;99.90;;;;;;7372111;19;20018;-59
2023/08/07 05:38:35;;;;;;;13.07;4.55;;;14.60;99.90;;;;;;7376841;19;20081;-60
2023/08/07 05:41:01;;;;;;;13.10;4.93;;;14.60;99.90;;;;;;7374635;19;20014;-58
2023/08/07 05:43:28;;;;;;;15.05;4.70;;;14.60;99.90;;;;;;7377236;19;20014;-61
2023/08/07 05:45:54;;;;;;;10.13;4.00;;;14.50;99.90;;;;;;7372228;19;20015;-60
2023/08/07 05:48:20;;;;;;;15.07;5.35;;;14.50;99.90;;;;;;7373769;19;20543;-59
2023/08/07 05:50:47;;;;;;;12.82;4.75;;;14.50;99.90;;;;;;7374486;19;20599;-59
2023/08/07 05:53:16;;;;;;;18.70;4.93;;;14.60;99.90;;;;;;7377948;19;20371;-59
2023/08/07 05:55:42;;;;;;;10.05;4.70;;;14.60;99.90;;;;;;7371155;19;20014;-60
2023/08/07 05:58:11;;;;;;;15.18;4.85;;;14.50;99.90;;;;;;7372303;19;20015;-62
2023/08/07 06:00:38;;;;;;;23.42;11.15;;;14.50;99.90;;;;;;7371463;19;20028;-62
2023/08/07 06:03:05;;;;;;;10.32;4.95;;;14.50;99.90;;;;;;7377457;19;20019;-64
2023/08/07 06:05:31;;;;;;;15.82;7.47;;;14.60;99.90;;;;;;7373751;19;20369;-61
2023/08/07 06:07:57;;;;;;;12.05;4.50;;;14.60;99.90;;;;;;7371503;19;20011;-62
2023/08/07 06:10:24;;;;;;;13.27;4.82;;;14.60;99.90;;;;;;7373018;19;20022;-61
2023/08/07 06:12:50;;;;;;;14.98;4.93;;;14.70;99.90;;;;;;7371953;19;20025;-61
2023/08/07 06:15:16;;;;;;;15.23;5.28;;;14.80;99.90;;;;;;7373950;19;20465;-63
2023/08/07 06:17:43;;;;;;;18.92;5.15;;;14.90;99.90;;;;;;7372344;19;20014;-62
2023/08/07 06:20:11;;;;;;;16.25;6.03;;;14.90;99.90;;;;;;7373223;19;20033;-62
2023/08/07 06:22:38;;;;;;;15.32;4.93;;;15.20;99.90;;;;;;7370099;19;20101;-62
2023/08/07 06:25:06;;;;;;;14.82;4.10;;;15.50;99.90;;;;;;7375722;19;20019;-64
2023/08/07 06:27:33;;;;;;;11.98;4.00;;;15.80;99.90;;;;;;7371525;19;20013;-65
2023/08/07 06:29:59;;;;;;;13.20;4.20;;;15.90;99.90;;;;;;7371647;19;20022;-59
2023/08/07 06:32:26;;;;;;;13.77;4.32;;;15.90;99.90;;;;;;7372653;19;20015;-63
2023/08/07 06:34:53;;;;;;;14.60;3.55;;;15.80;99.90;;;;;;7373229;19;20018;-63
2023/08/07 06:37:20;;;;;;;19.50;4.93;;;15.70;99.90;;;;;;7372283;19;20014;-62
2023/08/07 06:39:46;;;;;;;12.23;4.22;;;15.60;99.90;;;;;;7370823;19;20019;-58
2023/08/07 06:42:12;;;;;;;9.93;3.13;;;15.50;99.90;;;;;;7371829;19;20015;-59
2023/08/07 06:44:42;;;;;;;12.18;3.65;;;15.10;99.90;;;;;;7370389;19;20025;-59
2023/08/07 06:47:09;;;;;;;10.65;3.63;;;14.90;99.90;;;;;;7372991;19;20015;-62
2023/08/07 06:49:35;;;;;;;13.25;3.65;;;14.90;99.90;;;;;;7370437;19;20019;-62
2023/08/07 06:52:02;;;;;;;9.90;2.92;;;14.90;99.90;;;;;;7372360;19;20016;-67
2023/08/07 06:54:28;;;;;;;12.35;3.20;;;14.90;99.90;;;;;;7375315;19;20014;-66
2023/08/07 06:56:55;;;;;;;9.07;3.17;;;14.90;99.90;;;;;;7373060;19;20375;-62
2023/08/07 06:59:21;;;;;;;8.35;2.80;;;14.90;99.90;;;;;;7374239;19;20010;-63
2023/08/07 07:01:48;;;;;;;8.48;3.13;;;14.90;99.90;;;;;;7368933;19;20034;-58
2023/08/07 07:04:14;;;;;;;8.52;2.97;;;15.00;99.90;;;;;;7371078;19;20714;-58
2023/08/07 07:06:40;;;;;;;10.85;3.67;;;15.00;99.90;;;;;;7368692;19;20016;-63
2023/08/07 07:09:28;;;;;;;11.45;3.85;;;15.10;99.90;;;;;;7369113;19;20019;-63
2023/08/07 07:11:55;;;;;;;11.55;6.28;;;15.30;99.90;;;;;;7370841;19;20018;-58
2023/08/07 07:14:22;;;;;;;12.40;4.05;;;15.50;99.90;;;;;;7371199;19;20541;-58
2023/08/07 07:16:48;;;;;;;9.70;3.60;;;15.60;99.90;;;;;;7370260;19;20018;-62
2023/08/07 07:19:16;;;;;;;13.52;4.00;;;16.00;99.90;;;;;;7371769;19;20026;-62
2023/08/07 07:21:42;;;;;;;11.45;3.55;;;16.40;99.90;;;;;;7371462;19;20022;-63
2023/08/07 07:24:08;;;;;;;12.15;3.95;;;16.60;99.90;;;;;;7371294;19;20507;-60
2023/08/07 07:26:35;;;;;;;10.80;3.33;;;16.90;99.90;;;;;;7369461;19;20025;-58
2023/08/07 07:29:01;;;;;;;11.98;4.10;;;17.40;99.90;;;;;;7371767;19;20018;-58
2023/08/07 07:31:27;;;;;;;10.63;3.30;;;17.60;99.90;;;;;;7370536;19;20472;-58
2023/08/07 07:33:54;;;;;;;12.45;3.05;;;17.70;99.90;;;;;;7373164;19;20025;-58
2023/08/07 07:36:20;;;;;;;8.10;2.97;;;17.60;99.90;;;;;;7368810;19;20018;-58
2023/08/07 07:38:47;;;;;;;8.50;2.83;;;17.20;99.90;;;;;;7371226;19;20382;-58
2023/08/07 07:41:14;;;;;;;10.05;2.72;;;16.60;99.90;;;;;;7371131;19;20596;-58
2023/08/07 07:43:41;;;;;;;8.80;2.30;;;16.40;99.90;;;;;;7370898;19;20026;-58
2023/08/07 07:46:07;;;;;;;11.07;2.75;;;16.10;99.90;;;;;;7370427;19;20047;-58
2023/08/07 07:48:34;;;;;;;5.65;1.92;;;16.10;99.90;;;;;;7367251;19;20532;-62
2023/08/07 07:51:09;;;;;;;9.07;2.55;;;16.30;99.90;;;;;;7370562;19;20561;-62
2023/08/07 07:53:36;;;;;;;7.30;2.03;;;16.90;99.90;;;;;;7369233;19;20015;-62
2023/08/07 07:56:02;;;;;;;8.00;2.30;;;17.30;99.90;;;;;;7369506;19;20089;-66
2023/08/07 07:58:28;;;;;;;6.30;2.30;;;17.30;99.90;;;;;;7370953;19;20025;-66
2023/08/07 08:00:56;;;;;;;7.88;2.13;;;17.00;99.90;;;;;;7371511;19;20023;-66
2023/08/07 08:03:25;;;;;;;5.72;2.10;;;16.50;99.90;;;;;;7369934;19;20052;-64
2023/08/07 08:05:52;;;;;;;6.85;1.92;;;16.20;99.90;;;;;;7369746;19;20038;-65
2023/08/07 08:08:18;;;;;;;4.25;1.75;;;15.80;99.90;;;;;;7368275;19;20018;-62
2023/08/07 08:10:47;;;;;;;4.80;1.85;;;15.80;99.90;;;;;;7364881;19;20068;-62
2023/08/07 08:13:15;;;;;;;3.75;1.40;;;15.70;99.90;;;;;;7369940;19;20014;-64
2023/08/07 08:15:41;;;;;;;3.65;1.60;;;15.80;99.90;;;;;;7368537;19;20025;-65
2023/08/07 08:18:07;;;;;;;4.68;1.80;;;16.20;99.90;;;;;;7371242;19;20493;-66
2023/08/07 08:20:34;;;;;;;5.22;1.77;;;16.30;99.90;;;;;;7372785;19;20024;-65
2023/08/07 08:23:00;;;;;;;4.95;1.55;;;16.70;99.90;;;;;;7379751;19;20486;-66
2023/08/07 08:25:26;;;;;;;5.82;1.88;;;16.90;99.90;;;;;;7379977;19;20029;-57
2023/08/07 08:27:52;;;;;;;6.45;1.88;;;17.10;99.90;;;;;;7357535;19;20022;-57
2023/08/07 08:30:19;;;;;;;8.18;1.92;;;17.70;99.90;;;;;;7374672;19;20019;-57
2023/08/07 08:32:45;;;;;;;9.00;3.33;;;18.20;99.90;;;;;;7374848;19;20106;-57
2023/08/07 08:35:11;;;;;;;7.88;2.28;;;18.70;99.90;;;;;;7375767;19;20056;-58
2023/08/07 08:37:38;;;;;;;7.47;2.65;;;18.40;99.90;;;;;;7376063;19;20018;-57
2023/08/07 08:40:06;;;;;;;9.90;2.63;;;18.00;99.90;;;;;;7373760;19;20014;-58
2023/08/07 08:42:33;;;;;;;7.65;2.38;;;17.20;99.90;;;;;;7375049;19;20058;-57
2023/08/07 08:45:02;;;;;;;5.85;2.15;;;16.70;99.90;;;;;;7375253;19;20053;-58
2023/08/07 08:47:31;;;;;;;9.35;2.75;;;16.20;99.90;;;;;;7375984;19;20044;-57
2023/08/07 08:50:04;;;;;;;9.40;3.15;;;15.80;99.90;;;;;;7373651;19;20018;-58
2023/08/07 08:52:32;;;;;;;7.53;3.22;;;15.80;99.90;;;;;;7369391;19;20411;-57
2023/08/07 08:55:01;;;;;;;9.02;3.17;;;16.10;99.90;;;;;;7374205;19;20581;-58
2023/08/07 08:57:30;;;;;;;11.05;3.08;;;16.80;99.90;;;;;;7375056;19;20042;-57
2023/08/07 08:59:57;;;;;;;11.60;3.55;;;17.30;99.90;;;;;;7372082;19;20441;-58
2023/08/07 09:02:25;;;;;;;8.88;3.30;;;17.60;99.90;;;;;;7363715;19;20454;-58
2023/08/07 09:04:51;;;;;;;10.18;2.95;;;17.80;99.90;;;;;;7374193;19;20022;-58
2023/08/07 09:07:20;;;;;;;8.93;3.20;;;18.00;99.90;;;;;;7373675;19;20023;-63
2023/08/07 09:09:49;;;;;;;10.77;3.00;;;18.50;99.90;;;;;;7375638;19;20025;-62
2023/08/07 09:12:29;;;;;;;10.30;3.33;;;18.60;99.90;;;;;;7376306;19;20018;-64
2023/08/07 09:15:01;;;;;;;14.10;3.35;;;18.70;99.90;;;;;;7374847;19;20022;-57
2023/08/07 09:17:29;;;;;;;15.25;3.65;;;19.00;99.90;;;;;;7374868;19;20027;-57
2023/08/07 09:19:55;;;;;;;9.70;2.35;;;19.30;99.90;;;;;;7373519;19;20022;-57
2023/08/07 09:22:22;;;;;;;9.95;2.67;;;19.70;99.90;;;;;;7372633;19;20086;-57
2023/08/07 09:24:49;;;;;;;7.15;2.65;;;19.40;99.90;;;;;;7373958;19;20022;-57
2023/08/07 09:27:15;;;;;;;13.85;3.35;;;19.70;99.90;;;;;;7374224;19;20438;-58
2023/08/07 09:29:43;;;;;;;12.30;3.25;;;19.50;99.90;;;;;;7374452;19;20019;-57
2023/08/07 09:32:12;;;;;;;9.73;2.83;;;19.60;99.90;;;;;;7376532;19;20091;-58
2023/08/07 09:34:40;;;;;;;9.82;2.83;;;19.60;99.90;;;;;;7371911;19;20011;-57
2023/08/07 09:37:10;;;;;;;8.60;2.65;;;19.50;99.90;;;;;;7376185;19;20026;-61
2023/08/07 09:39:37;;;;;;;7.07;2.47;;;19.20;99.90;;;;;;7373322;19;20051;-61
2023/08/07 09:42:33;;;;;;;6.82;2.30;;;18.90;99.90;;;;;;7376687;19;20288;-62
2023/08/07 09:45:02;;;;;;;10.57;2.40;;;19.70;99.90;;;;;;7373411;19;20035;-61
2023/08/07 09:47:32;;;;;;;11.40;2.90;;;20.00;99.90;;;;;;7371755;19;20380;-57
2023/08/07 09:49:58;;;;;;;7.82;2.63;;;20.50;99.90;;;;;;7373519;19;20025;-58
2023/08/07 09:52:26;;;;;;;6.30;1.73;;;21.00;99.90;;;;;;7370468;19;20018;-58
2023/08/07 09:54:56;;;;;;;5.95;2.22;;;20.60;99.90;;;;;;7375174;19;20038;-58
2023/08/07 09:57:23;;;;;;;9.70;2.40;;;20.60;99.90;;;;;;7373462;19;20054;-58
2023/08/07 09:59:51;;;;;;;7.00;2.10;;;20.50;99.90;;;;;;7373342;19;20018;-58
2023/08/07 10:02:18;;;;;;;9.13;2.88;;;21.00;99.90;;;;;;7372968;19;20469;-56
2023/08/07 10:04:45;;;;;;;7.22;2.40;;;21.50;99.90;;;;;;7369735;19;20082;-59
2023/08/07 10:07:15;;;;;;;10.68;2.83;;;20.50;99.90;;;;;;7373547;19;20568;-59
2023/08/07 10:09:42;;;;;;;7.07;2.45;;;20.20;99.90;;;;;;7372025;19;20011;-59
2023/08/07 10:12:09;;;;;;;6.60;2.25;;;19.70;99.90;;;;;;7371769;19;20033;-59
2023/08/07 10:14:36;;;;;;;10.77;2.33;;;19.40;99.90;;;;;;7367630;19;20026;-58
2023/08/07 10:17:03;;;;;;;8.75;2.80;;;19.10;99.90;;;;;;7373084;19;20039;-58
2023/08/07 10:19:30;;;;;;;9.13;2.85;;;18.90;99.90;;;;;;7370736;19;20711;-62
2023/08/07 10:21:57;;;;;;;8.75;2.60;;;19.30;99.90;;;;;;7371150;19;20111;-62
2023/08/07 10:24:24;;;;;;;9.48;2.45;;;19.80;99.90;;;;;;7372312;19;20751;-59
2023/08/07 10:26:51;;;;;;;9.02;2.85;;;20.80;99.90;;;;;;7374690;19;20018;-59
2023/08/07 10:29:20;;;;;;;7.45;2.25;;;21.00;99.90;;;;;;7370180;19;20022;-62
2023/08/07 10:31:48;;;;;;;6.93;2.00;;;21.80;99.90;;;;;;7373025;19;20056;-62
2023/08/07 10:34:15;;;;;;;6.18;2.58;;;21.50;99.90;;;;;;7369846;19;20497;-59
2023/08/07 10:36:41;;;;;;;7.82;2.28;;;21.30;99.90;;;;;;7373523;19;20116;-58
2023/08/07 10:39:09;;;;;;;6.55;2.22;;;20.50;99.90;;;;;;7371811;19;20055;-59
2023/08/07 10:41:52;;;;;;;7.65;2.88;;;20.00;99.90;;;;;;7373108;19;20409;-62
2023/08/07 10:44:19;;;;;;;5.65;2.47;;;19.50;99.90;;;;;;7368901;19;20018;-58
2023/08/07 10:46:55;;;;;;;8.40;2.70;;;19.00;99.90;;;;;;7372600;19;20018;-59
2023/08/07 10:49:38;;;;;;;9.55;2.72;;;19.10;99.90;;;;;;7372518;19;20022;-59
2023/08/07 10:52:13;;;;;;;9.63;2.90;;;19.10;99.90;;;;;;7371625;19;20035;-58
2023/08/07 10:54:49;;;;;;;8.32;2.42;;;19.60;99.90;;;;;;7372403;19;20532;-58
2023/08/07 10:57:19;;;;;;;9.38;2.47;;;20.00;99.90;;;;;;7372354;19;20015;-62
2023/08/07 11:00:01;;;;;;;9.98;3.60;;;20.10;99.90;;;;;;7371611;19;20507;-62
2023/08/07 11:02:30;;;;;;;11.70;2.70;;;20.00;99.90;;;;;;7373324;19;20029;-62
2023/08/07 11:04:59;;;;;;;7.68;2.30;;;19.90;99.90;;;;;;7374029;19;20026;-62
2023/08/07 11:07:31;;;;;;;8.13;2.33;;;19.60;99.90;;;;;;7370441;19;20015;-62
2023/08/07 11:10:00;;;;;;;8.50;2.60;;;19.30;99.90;;;;;;7373684;19;20525;-61
2023/08/07 11:12:28;;;;;;;15.77;3.13;;;18.90;99.90;;;;;;7373125;19;20099;-58
2023/08/07 11:14:58;;;;;;;8.98;2.65;;;18.90;99.90;;;;;;7369449;19;20470;-64
2023/08/07 11:17:26;;;;;;;10.23;3.00;;;19.00;99.90;;;;;;7373725;19;20441;-61
2023/08/07 11:19:54;;;;;;;8.13;2.53;;;18.90;99.90;;;;;;7369037;19;20022;-62
2023/08/07 11:22:23;;;;;;;8.27;2.40;;;19.30;99.90;;;;;;7373999;19;20021;-62
2023/08/07 11:24:51;;;;;;;5.93;2.25;;;20.30;99.90;;;;;;7369431;19;20017;-58
2023/08/07 11:27:24;;;;;;;8.07;2.30;;;20.20;99.90;;;;;;7372214;19;20011;-62
2023/08/07 11:29:54;;;;;;;4.95;1.95;;;20.30;99.90;;;;;;7369938;19;20363;-62
2023/08/07 11:32:22;;;;;;;7.32;1.88;;;20.20;99.90;;;;;;7374910;19;20022;-62
2023/08/07 11:34:52;;;;;;;7.43;2.30;;;19.90;99.90;;;;;;7370543;19;20390;-61
2023/08/07 11:37:21;;;;;;;7.22;2.17;;;19.40;99.90;;;;;;7370650;19;20483;-64
2023/08/07 11:39:48;;;;;;;10.88;2.10;;;19.00;99.90;;;;;;7370282;19;20021;-62
2023/08/07 11:42:14;;;;;;;6.65;2.08;;;19.50;99.90;;;;;;7373213;19;20029;-61
2023/08/07 11:44:50;;;;;;;5.20;2.20;;;19.70;99.90;;;;;;7368902;19;20030;-62
2023/08/07 11:47:17;;;;;;;5.43;2.28;;;19.70;99.90;;;;;;7373042;19;20368;-58
2023/08/07 11:49:46;;;;;;;7.43;2.30;;;19.70;99.90;;;;;;7368895;19;20022;-59
2023/08/07 11:52:13;;;;;;;6.68;2.08;;;19.40;99.90;;;;;;7368276;19;20039;-58
2023/08/07 11:54:40;;;;;;;5.28;1.60;;;19.40;99.90;;;;;;7369421;19;20025;-59
2023/08/07 11:57:16;;;;;;;6.00;1.63;;;19.40;99.90;;;;;;7377745;19;20030;-58
2023/08/07 11:59:47;;;;;;;5.93;1.70;;;19.40;99.90;;;;;;7380948;19;20033;-59
2023/08/07 12:02:14;;;;;;;7.93;2.22;;;19.50;99.90;;;;;;7373981;19;20021;-58
2023/08/07 12:04:50;;;;;;;8.80;2.67;;;19.60;99.90;;;;;;7378256;19;20440;-58
2023/08/07 12:07:23;;;;;;;5.97;1.83;;;19.60;99.90;;;;;;7375319;19;20015;-58
2023/08/07 12:09:49;;;;;;;5.93;1.80;;;19.60;99.90;;;;;;7376210;19;20026;-58
2023/08/07 12:12:15;;;;;;;6.78;2.10;;;19.90;99.90;;;;;;7375053;19;20124;-58
2023/08/07 12:14:41;;;;;;;4.40;1.80;;;20.10;99.90;;;;;;7377163;19;20050;-58
2023/08/07 12:17:09;;;;;;;6.00;1.77;;;20.20;99.90;;;;;;7375715;19;20030;-58
2023/08/07 12:19:40;;;;;;;6.93;2.33;;;20.50;99.90;;;;;;7376911;19;20029;-61
2023/08/07 12:22:08;;;;;;;4.38;1.90;;;20.70;99.90;;;;;;7375280;19;20143;-59
2023/08/07 12:24:42;;;;;;;6.18;1.80;;;20.90;99.90;;;;;;7377717;19;20471;-58
2023/08/07 12:27:08;;;;;;;4.43;1.95;;;20.70;99.90;;;;;;7376880;19;20010;-58
2023/08/07 12:29:35;;;;;;;7.55;2.10;;;20.10;99.90;;;;;;7377610;19;20528;-58
2023/08/07 12:32:02;;;;;;;6.78;2.28;;;19.80;99.90;;;;;;7376295;19;20014;-58
2023/08/07 12:34:32;;;;;;;11.30;2.25;;;19.40;99.90;;;;;;7375989;19;20025;-58
2023/08/07 12:36:58;;;;;;;7.72;2.20;;;18.70;99.90;;;;;;7376520;19;20038;-58
2023/08/07 12:39:24;;;;;;;7.70;2.13;;;18.50;99.90;;;;;;7374313;19;20038;-60
2023/08/07 12:41:51;;;;;;;7.82;2.67;;;18.60;99.90;;;;;;7376359;19;20018;-58
2023/08/07 12:44:17;;;;;;;11.00;2.72;;;18.40;99.90;;;;;;7372937;19;20026;-61